KHZE

Mercer County Regional Airport

Hazen, North Dakota, USA
METAR KHZE 180215Z AUTO 16011KT 10SM BKN080 25/13 A3003 RMK AO2
Observed Flight Rules
Aug-18 @ 02:15 UTC (14 minutes ago) Visual Flight Rules
Wind Visibility Clouds
160° at 11 knots 10 miles
  • Broken at 8,000' AGL
Temperatures Readings
Current 25°C / 77°F
Dewpoint 13°C / 55°F
Humidity 47%
Altimeter 30.03" Hg
Pressure 1017 hPa
Elevation 553
METAR KHZE 180215Z AUTO 16011KT 10SM BKN080 25/13 A3003 RMK AO2
Observed Flight Rules
Aug-18 @ 02:15 UTC
(14 minutes ago)
VFR
Wind Visibility
160° at 11 knots 10 miles
Clouds
  • Broken at 8,000' AGL
Temperature Dewpoint
25°C / 77°F 13°C / 55°F
Humidity Altimeter Pressure
47% 30.03" Hg 1017 hPa